Time;durP1;ratioP1;P1;durP2;ratioP2;P2;SDS_P1;SDS_P2;PMS_P1;PMS_P2;Temp;Humidity;BMP_temperature;BMP_pressure;BME280_temperature;BME280_humidity;BME280_pressure;Samples;Min_cycle;Max_cycle;Signal;HPM_P1;HPM_P2
2023/06/19 00:02:04;;;;;;;11.70;10.60;;;;;;;23.97;55.21;100225.75;109143;1256;72725;-78
2023/06/19 00:04:31;;;;;;;12.00;10.80;;;;;;;23.97;54.70;100224.59;109181;1256;60209;-78
2023/06/19 00:06:59;;;;;;;11.90;10.70;;;;;;;23.99;54.26;100222.46;109204;1256;60309;-78
2023/06/19 00:09:27;;;;;;;12.40;10.90;;;;;;;24.00;54.02;100219.13;109191;1256;74462;-78
2023/06/19 00:11:53;;;;;;;13.10;10.80;;;;;;;24.00;54.05;100221.15;109166;1256;72662;-78
2023/06/19 00:14:20;;;;;;;12.20;11.00;;;;;;;23.98;53.95;100220.16;109173;1256;72784;-77
2023/06/19 00:16:47;;;;;;;11.70;10.60;;;;;;;23.96;53.56;100222.16;109201;1256;59386;-78
2023/06/19 00:19:14;;;;;;;12.00;10.90;;;;;;;23.96;53.24;100221.20;109131;1256;58971;-77
2023/06/19 00:21:42;;;;;;;12.10;10.80;;;;;;;23.94;53.62;100218.05;109159;1256;74682;-78
2023/06/19 00:24:10;;;;;;;12.00;10.80;;;;;;;23.93;53.88;100218.98;109130;1255;72709;-78
2023/06/19 00:26:37;;;;;;;11.90;10.80;;;;;;;23.91;53.88;100217.28;109197;1256;72691;-78
2023/06/19 00:29:04;;;;;;;11.90;10.60;;;;;;;23.89;53.79;100213.74;109195;1256;61972;-78
2023/06/19 00:31:31;;;;;;;13.40;10.70;;;;;;;23.88;53.32;100218.16;109211;1256;59620;-77
2023/06/19 00:33:58;;;;;;;12.50;10.40;;;;;;;23.91;53.47;100215.70;109137;1256;74729;-78
2023/06/19 00:36:26;;;;;;;12.20;10.60;;;;;;;23.92;52.98;100217.84;109251;1256;72649;-78
2023/06/19 00:38:53;;;;;;;13.50;11.10;;;;;;;23.94;52.68;100219.23;109068;1256;72448;-78
2023/06/19 00:41:21;;;;;;;15.50;11.70;;;;;;;23.93;53.28;100220.75;109150;1260;59226;-78
2023/06/19 00:43:48;;;;;;;12.10;10.60;;;;;;;23.89;54.42;100217.70;109038;1256;60367;-78
2023/06/19 00:46:14;;;;;;;15.80;11.70;;;;;;;23.86;54.35;100219.05;109206;1255;74387;-78
2023/06/19 00:48:42;;;;;;;12.80;10.90;;;;;;;23.86;54.37;100215.70;109217;1255;72540;-78
2023/06/19 00:51:09;;;;;;;13.60;10.90;;;;;;;23.87;54.15;100216.34;109240;1255;72512;-78
2023/06/19 00:53:35;;;;;;;14.00;11.30;;;;;;;23.89;53.95;100217.70;109096;1256;60347;-78
2023/06/19 00:56:03;;;;;;;16.30;12.30;;;;;;;23.93;53.80;100212.40;109146;1256;59566;-78
2023/06/19 00:58:30;;;;;;;13.00;11.20;;;;;;;23.94;53.97;100211.88;109071;1256;73433;-78
2023/06/19 01:00:57;;;;;;;17.00;12.40;;;;;;;23.95;53.57;100213.48;109126;1260;72629;-78
2023/06/19 01:03:36;;;;;;;12.70;11.30;;;;;;;23.96;54.12;100218.58;109163;1256;72776;-78
2023/06/19 01:06:05;;;;;;;13.90;11.60;;;;;;;23.95;54.15;100223.91;109190;1256;59551;-78
2023/06/19 01:08:42;;;;;;;12.10;10.90;;;;;;;23.91;54.41;100228.11;109039;1256;59045;-78
2023/06/19 01:11:09;;;;;;;13.80;11.10;;;;;;;23.89;53.88;100226.04;109228;1256;74577;-77
2023/06/19 01:14:01;;;;;;;11.70;10.40;;;;;;;23.87;53.09;100224.67;109175;1256;71409;-78
2023/06/19 01:16:29;;;;;;;12.40;11.20;;;;;;;23.86;52.73;100226.30;109193;1256;71858;-78
2023/06/19 01:18:56;;;;;;;12.40;11.00;;;;;;;23.86;52.78;100232.22;109157;1256;58938;-78
2023/06/19 01:21:23;;;;;;;13.30;11.90;;;;;;;23.86;52.71;100227.00;109032;1256;59088;-78
2023/06/19 01:23:50;;;;;;;12.20;11.00;;;;;;;23.86;52.17;100230.33;109191;1256;75233;-78
2023/06/19 01:26:18;;;;;;;12.00;10.80;;;;;;;23.86;51.80;100232.91;109163;1256;71920;-78
2023/06/19 01:28:45;;;;;;;11.80;10.60;;;;;;;23.87;52.05;100240.10;109187;1256;72613;-77
2023/06/19 01:31:21;;;;;;;12.50;11.20;;;;;;;23.86;52.29;100239.08;109179;1257;60800;-78
2023/06/19 01:33:49;;;;;;;12.00;10.90;;;;;;;23.86;52.30;100242.18;109158;1256;59096;-78
2023/06/19 01:36:16;;;;;;;13.30;10.80;;;;;;;23.85;52.98;100240.11;109097;1256;74469;-78
2023/06/19 01:38:43;;;;;;;11.40;10.20;;;;;;;23.83;53.58;100244.61;109142;1256;72845;-78
2023/06/19 01:41:10;;;;;;;12.60;10.70;;;;;;;23.82;54.01;100241.14;109028;1256;71458;-78
2023/06/19 01:43:37;;;;;;;12.40;11.10;;;;;;;23.81;53.99;100243.63;109148;1256;60468;-78
2023/06/19 01:46:04;;;;;;;11.70;10.50;;;;;;;23.82;53.86;100240.91;109227;1255;60303;-78
2023/06/19 01:48:31;;;;;;;12.00;10.60;;;;;;;23.78;53.60;100240.91;109280;1256;74606;-78
2023/06/19 01:50:58;;;;;;;12.50;10.50;;;;;;;23.74;53.63;100236.05;109289;1256;72566;-78
2023/06/19 01:53:25;;;;;;;12.20;10.90;;;;;;;23.70;53.30;100240.02;109276;1257;71668;-78
2023/06/19 01:55:52;;;;;;;12.10;10.80;;;;;;;23.66;52.78;100245.74;109226;1256;60046;-78
2023/06/19 01:58:19;;;;;;;13.20;11.30;;;;;;;23.63;52.54;100245.03;109294;1257;58868;-78
2023/06/19 02:00:46;;;;;;;12.00;10.50;;;;;;;23.60;52.90;100245.20;109230;1256;73477;-79
2023/06/19 02:03:13;;;;;;;12.00;10.80;;;;;;;23.54;52.94;100248.55;109292;1257;72604;-78
2023/06/19 02:05:42;;;;;;;11.20;10.00;;;;;;;23.47;53.35;100249.15;109184;1257;72677;-77
2023/06/19 02:08:09;;;;;;;11.80;10.30;;;;;;;23.42;52.97;100251.45;109251;1255;61660;-77
2023/06/19 02:10:36;;;;;;;12.20;11.00;;;;;;;23.38;53.30;100254.46;109302;1257;59407;-77
2023/06/19 02:13:03;;;;;;;11.70;10.50;;;;;;;23.37;53.16;100257.23;109211;1256;73273;-78
2023/06/19 02:15:30;;;;;;;12.80;11.50;;;;;;;23.37;53.01;100255.98;109194;1257;72709;-78
2023/06/19 02:17:57;;;;;;;13.00;10.50;;;;;;;23.37;53.30;100256.01;109097;1256;72740;-78
2023/06/19 02:20:25;;;;;;;12.30;10.50;;;;;;;23.35;53.57;100254.92;109051;1257;59479;-78
2023/06/19 02:22:55;;;;;;;13.40;11.00;;;;;;;23.33;53.00;100256.73;109188;1256;59516;-77
2023/06/19 02:25:22;;;;;;;12.20;10.70;;;;;;;23.26;53.03;100256.27;109212;1256;73634;-78
2023/06/19 02:27:49;;;;;;;12.30;11.10;;;;;;;23.22;52.79;100255.52;109193;1256;72798;-77
2023/06/19 02:30:16;;;;;;;11.40;10.00;;;;;;;23.22;52.78;100257.70;109123;1256;72465;-78
2023/06/19 02:32:44;;;;;;;10.50;9.50;;;;;;;23.19;52.69;100258.51;109166;1256;62008;-78
2023/06/19 02:35:11;;;;;;;11.30;9.80;;;;;;;23.17;52.70;100262.88;109184;1257;60409;-78
2023/06/19 02:37:39;;;;;;;10.90;9.80;;;;;;;23.17;52.65;100266.23;109196;1257;73066;-77
2023/06/19 02:40:09;;;;;;;11.40;10.30;;;;;;;23.17;52.59;100266.62;109056;1257;72583;-78
2023/06/19 02:42:36;;;;;;;12.00;10.30;;;;;;;23.18;52.75;100262.28;109203;1257;72720;-78
2023/06/19 02:45:03;;;;;;;13.00;10.40;;;;;;;23.20;52.65;100264.04;109258;1257;60517;-78
2023/06/19 02:47:34;;;;;;;14.00;10.40;;;;;;;23.21;52.65;100266.09;109296;1256;58811;-78
2023/06/19 02:50:03;;;;;;;11.60;10.30;;;;;;;23.23;52.85;100267.08;109295;1257;74689;-78
2023/06/19 02:52:31;;;;;;;11.30;10.00;;;;;;;23.24;52.82;100267.98;109287;1255;72558;-78
2023/06/19 02:55:00;;;;;;;11.80;10.00;;;;;;;23.24;52.88;100266.25;109298;1257;72580;-78
2023/06/19 02:57:27;;;;;;;12.20;10.00;;;;;;;23.23;52.94;100263.27;109130;1255;248816;-78
2023/06/19 02:59:54;;;;;;;11.50;10.30;;;;;;;23.24;52.93;100266.10;109337;1255;59122;-78
2023/06/19 03:02:21;;;;;;;13.00;9.60;;;;;;;23.29;53.15;100266.39;109306;1255;73369;-78
2023/06/19 03:04:49;;;;;;;12.00;10.30;;;;;;;23.34;53.06;100265.88;109322;1256;74014;-78
2023/06/19 03:07:17;;;;;;;12.30;9.80;;;;;;;23.37;53.26;100263.95;109145;1258;71407;-78
2023/06/19 03:09:44;;;;;;;11.00;9.90;;;;;;;23.41;53.46;100262.86;109187;1256;60097;-78
2023/06/19 03:12:11;;;;;;;11.90;9.70;;;;;;;23.41;53.34;100261.32;109106;1256;60247;-78
2023/06/19 03:14:38;;;;;;;10.90;9.80;;;;;;;23.43;53.20;100264.32;109203;1256;73221;-78
2023/06/19 03:17:05;;;;;;;11.10;9.90;;;;;;;23.42;53.33;100264.30;109228;1257;72827;-78
2023/06/19 03:19:32;;;;;;;11.20;9.90;;;;;;;23.44;53.26;100259.67;109163;1257;72711;-78
2023/06/19 03:21:59;;;;;;;11.00;9.60;;;;;;;23.45;53.37;100264.08;109188;1256;59534;-78
2023/06/19 03:24:26;;;;;;;12.50;10.30;;;;;;;23.44;52.94;100263.18;109169;1258;60109;-78
2023/06/19 03:26:54;;;;;;;13.30;10.00;;;;;;;23.41;53.10;100259.75;109194;1256;74748;-78
2023/06/19 03:29:21;;;;;;;11.00;9.90;;;;;;;23.41;53.02;100258.21;109149;1257;72814;-78
2023/06/19 03:31:53;;;;;;;10.60;9.50;;;;;;;23.46;52.92;100262.54;109088;1257;71572;-78
2023/06/19 03:34:20;;;;;;;10.90;9.70;;;;;;;23.51;52.92;100262.56;109071;1261;61785;-77
2023/06/19 03:36:47;;;;;;;11.90;10.10;;;;;;;23.55;52.85;100255.52;109061;1256;60307;-78
2023/06/19 03:39:14;;;;;;;12.20;10.00;;;;;;;23.59;52.63;100254.60;109139;1256;74697;-77
2023/06/19 03:41:42;;;;;;;11.50;9.60;;;;;;;23.65;52.78;100254.44;109066;1257;72635;-78
2023/06/19 03:44:09;;;;;;;12.30;10.20;;;;;;;23.70;52.60;100252.08;109095;1258;70619;-77
2023/06/19 03:46:36;;;;;;;11.50;9.40;;;;;;;23.73;52.38;100252.39;109086;1257;58958;-77
2023/06/19 03:49:04;;;;;;;10.90;9.70;;;;;;;23.81;52.39;100254.08;109100;1258;58951;-77
2023/06/19 03:51:32;;;;;;;10.90;9.60;;;;;;;23.89;52.16;100251.90;109149;1256;74447;-77
2023/06/19 03:53:59;;;;;;;11.50;9.90;;;;;;;23.95;52.01;100254.08;109081;1257;71389;-78
2023/06/19 03:56:27;;;;;;;15.10;10.40;;;;;;;24.01;51.87;100251.03;109127;1257;71309;-77
2023/06/19 03:58:54;;;;;;;11.90;9.80;;;;;;;24.07;52.23;100252.02;109193;1257;59149;-77
2023/06/19 04:01:21;;;;;;;10.50;9.40;;;;;;;24.12;51.95;100252.91;109134;1255;59068;-78
2023/06/19 04:03:51;;;;;;;10.50;9.50;;;;;;;24.18;51.62;100254.20;109171;1256;74711;-78
2023/06/19 04:06:18;;;;;;;11.90;10.20;;;;;;;24.23;51.63;100254.77;109310;1255;72946;-78
2023/06/19 04:08:45;;;;;;;12.90;10.50;;;;;;;24.29;51.70;100257.26;109277;1257;71866;-78
2023/06/19 04:11:12;;;;;;;12.40;10.40;;;;;;;24.38;51.59;100255.03;109085;1258;60286;-77
2023/06/19 04:13:39;;;;;;;11.20;10.00;;;;;;;24.50;51.40;100257.42;109151;1257;59568;-78
2023/06/19 04:16:06;;;;;;;12.00;9.90;;;;;;;24.63;51.24;100254.88;109229;1257;74992;-76
2023/06/19 04:18:34;;;;;;;14.30;10.80;;;;;;;24.74;51.15;100257.06;109049;1256;72549;-77
2023/06/19 04:21:03;;;;;;;12.90;10.40;;;;;;;24.87;50.70;100259.80;109019;1256;72785;-78
2023/06/19 04:23:31;;;;;;;12.60;10.90;;;;;;;24.97;50.52;100257.41;109085;1257;59042;-77
2023/06/19 04:25:58;;;;;;;12.20;11.00;;;;;;;25.07;50.30;100257.44;109145;1256;59749;-77
2023/06/19 04:28:26;;;;;;;12.90;11.60;;;;;;;25.17;50.08;100257.20;109055;1257;74417;-77
2023/06/19 04:30:59;;;;;;;14.40;12.80;;;;;;;25.26;49.99;100259.63;109163;1256;73868;-77
2023/06/19 04:33:29;;;;;;;13.70;12.00;;;;;;;25.33;50.04;100255.75;109115;1257;71529;-78
2023/06/19 04:35:57;;;;;;;12.30;11.10;;;;;;;25.37;49.94;100262.77;109162;1257;59110;-77
2023/06/19 04:38:24;;;;;;;12.00;10.60;;;;;;;25.40;49.81;100259.40;109212;1256;58923;-77
2023/06/19 04:40:51;;;;;;;13.10;10.60;;;;;;;25.45;49.74;100266.59;109223;1256;74416;-77
2023/06/19 04:43:21;;;;;;;11.50;10.20;;;;;;;25.54;49.65;100263.38;109300;1257;72676;-77
2023/06/19 04:45:48;;;;;;;14.40;11.10;;;;;;;25.58;49.36;100267.18;109252;1257;71209;-77
2023/06/19 04:48:15;;;;;;;11.40;10.20;;;;;;;25.65;49.10;100270.35;109271;1257;60768;-77
2023/06/19 04:50:43;;;;;;;12.70;11.00;;;;;;;25.71;48.96;100269.91;109295;1256;59796;-76
2023/06/19 04:53:09;;;;;;;12.30;10.70;;;;;;;25.75;48.91;100272.23;109198;1256;73452;-76
2023/06/19 04:55:37;;;;;;;11.70;10.20;;;;;;;25.75;48.71;100270.52;109136;1256;71494;-77
2023/06/19 04:58:04;;;;;;;11.90;10.50;;;;;;;25.77;48.77;100274.14;109175;1257;72853;-78
2023/06/19 05:00:30;;;;;;;12.50;10.20;;;;;;;25.82;48.96;100276.11;109064;1256;59276;-78
2023/06/19 05:03:00;;;;;;;13.70;10.30;;;;;;;25.93;48.54;100276.45;109229;1256;60256;-78
2023/06/19 05:05:30;;;;;;;11.10;9.90;;;;;;;26.05;48.30;100282.02;109167;1256;74568;-78
2023/06/19 05:07:57;;;;;;;11.20;10.00;;;;;;;26.16;47.93;100279.38;109114;1257;71422;-78
2023/06/19 05:10:23;;;;;;;11.60;10.30;;;;;;;26.30;47.41;100276.75;109192;1256;72646;-78
2023/06/19 05:12:53;;;;;;;11.70;10.30;;;;;;;26.44;46.92;100274.44;109194;1257;59098;-77
2023/06/19 05:15:20;;;;;;;13.00;10.60;;;;;;;26.55;46.52;100272.02;109208;1257;59109;-77
2023/06/19 05:17:47;;;;;;;14.90;10.20;;;;;;;26.62;46.11;100272.59;109174;1257;73904;-76
2023/06/19 05:20:14;;;;;;;11.20;10.10;;;;;;;26.71;46.00;100275.43;109161;1256;72838;-77
2023/06/19 05:22:42;;;;;;;11.40;10.20;;;;;;;26.78;46.01;100275.05;109226;1256;72938;-78
2023/06/19 05:25:09;;;;;;;12.00;10.70;;;;;;;26.89;45.73;100272.20;109151;1257;60114;-78
2023/06/19 05:27:37;;;;;;;11.40;10.10;;;;;;;26.99;45.13;100272.23;109182;1256;59736;-77
2023/06/19 05:30:04;;;;;;;11.30;10.10;;;;;;;27.07;44.48;100268.24;109192;1256;74475;-78
2023/06/19 05:32:33;;;;;;;11.30;10.10;;;;;;;27.16;44.07;100272.04;109214;1257;72812;-79
2023/06/19 05:35:01;;;;;;;10.70;9.70;;;;;;;27.27;44.06;100269.40;109151;1257;72069;-77
2023/06/19 05:37:28;;;;;;;11.50;9.60;;;;;;;27.43;43.46;100274.88;109171;1256;59196;-78
2023/06/19 05:39:54;;;;;;;12.50;10.30;;;;;;;27.57;42.92;100272.17;109210;1257;60426;-78
2023/06/19 05:42:22;;;;;;;11.40;9.80;;;;;;;27.72;42.04;100276.39;109170;1257;73051;-77
2023/06/19 05:44:49;;;;;;;10.80;9.70;;;;;;;27.84;41.76;100276.98;109188;1256;63925;-78
2023/06/19 05:47:17;;;;;;;11.00;9.30;;;;;;;27.97;41.43;100273.06;109158;1256;71375;-77
2023/06/19 05:49:44;;;;;;;9.80;8.80;;;;;;;28.09;41.20;100277.08;109075;1256;59170;-78
2023/06/19 05:52:11;;;;;;;11.50;9.40;;;;;;;28.24;41.37;100276.05;109201;1256;60348;-79
2023/06/19 05:54:38;;;;;;;11.30;9.30;;;;;;;28.38;40.65;100278.10;109198;1256;73173;-77
2023/06/19 05:57:05;;;;;;;10.50;9.40;;;;;;;28.50;41.02;100278.02;109194;1257;72463;-77
2023/06/19 05:59:32;;;;;;;10.40;9.20;;;;;;;28.64;40.73;100273.84;109168;1256;72472;-78
2023/06/19 06:01:59;;;;;;;10.20;9.00;;;;;;;28.75;40.17;100277.73;109168;1256;58979;-78
2023/06/19 06:04:26;;;;;;;18.60;10.80;;;;;;;28.86;39.27;100281.94;109183;1256;60367;-78
2023/06/19 06:06:54;;;;;;;10.30;9.20;;;;;;;28.88;38.67;100281.63;109237;1256;75049;-77
2023/06/19 06:09:22;;;;;;;10.40;8.90;;;;;;;28.92;38.59;100283.52;109164;1257;72819;-78
2023/06/19 06:11:49;;;;;;;12.30;8.70;;;;;;;28.95;38.25;100285.17;109223;1256;62557;-78
2023/06/19 06:14:16;;;;;;;9.90;8.50;;;;;;;28.98;38.21;100281.81;109163;1256;58987;-78
2023/06/19 06:16:43;;;;;;;10.10;8.90;;;;;;;28.98;37.77;100283.69;109192;1256;59038;-77
2023/06/19 06:19:09;;;;;;;13.10;10.10;;;;;;;29.01;37.64;100286.02;109173;1257;74352;-77
2023/06/19 06:21:36;;;;;;;10.60;9.50;;;;;;;29.04;37.53;100287.12;109190;1256;63116;-77
2023/06/19 06:24:04;;;;;;;12.80;9.00;;;;;;;29.08;37.64;100293.88;109145;1255;62885;-77
2023/06/19 06:26:31;;;;;;;12.70;9.50;;;;;;;29.08;37.41;100293.26;109186;1256;58945;-77
2023/06/19 06:28:58;;;;;;;12.30;9.50;;;;;;;29.04;37.73;100291.77;109171;1256;59178;-78
2023/06/19 06:31:24;;;;;;;12.30;10.00;;;;;;;29.04;37.81;100297.57;109153;1256;75063;-77
2023/06/19 06:33:52;;;;;;;14.10;9.70;;;;;;;29.08;37.57;100293.80;109166;1255;63887;-77
2023/06/19 06:36:19;;;;;;;15.90;9.80;;;;;;;29.17;37.67;100298.63;109151;1256;63708;-78
2023/06/19 06:39:02;;;;;;;13.90;9.90;;;;;;;29.23;37.25;100295.33;109236;1254;59031;-79
2023/06/19 06:41:30;;;;;;;15.80;9.80;;;;;;;29.25;37.40;100299.81;109312;1254;60464;-78
2023/06/19 06:43:56;;;;;;;18.30;10.00;;;;;;;29.32;36.85;100299.98;109387;1254;75065;-78
2023/06/19 06:46:23;;;;;;;13.60;9.80;;;;;;;29.41;36.59;100303.21;109449;1254;62853;-79
2023/06/19 06:48:50;;;;;;;14.90;10.10;;;;;;;29.51;36.88;100301.41;109362;1254;71416;-79
2023/06/19 06:51:17;;;;;;;11.40;9.80;;;;;;;29.59;36.91;100302.21;109295;1254;60228;-77
2023/06/19 06:53:44;;;;;;;12.50;9.20;;;;;;;29.69;36.84;100301.38;109428;1254;59010;-77
2023/06/19 06:56:11;;;;;;;11.60;9.30;;;;;;;29.81;36.39;100301.85;109430;1254;64500;-78
2023/06/19 06:58:39;;;;;;;13.20;9.70;;;;;;;29.84;35.26;100300.42;109406;1254;63087;-78
2023/06/19 07:01:07;;;;;;;11.00;9.00;;;;;;;29.82;35.05;100301.14;109207;1256;62528;-78
2023/06/19 07:03:34;;;;;;;10.60;9.40;;;;;;;29.76;34.62;100304.20;109276;1256;59057;-79
2023/06/19 07:06:02;;;;;;;9.80;8.80;;;;;;;29.72;35.23;100306.02;109233;1256;58859;-78
2023/06/19 07:08:29;;;;;;;12.20;9.00;;;;;;;29.71;35.47;100302.86;109151;1255;74770;-78
2023/06/19 07:10:57;;;;;;;11.60;9.20;;;;;;;29.68;35.29;100303.27;109325;1255;63910;-78
2023/06/19 07:13:25;;;;;;;11.60;9.50;;;;;;;29.68;35.42;100307.27;109332;1256;64049;-77
2023/06/19 07:15:51;;;;;;;10.40;8.30;;;;;;;29.74;35.69;100309.95;109336;1256;58992;-77
2023/06/19 07:18:18;;;;;;;12.20;9.00;;;;;;;29.82;35.00;100310.58;109341;1256;59141;-80
2023/06/19 07:20:45;;;;;;;12.50;9.70;;;;;;;29.82;34.89;100306.48;109347;1256;65895;-78
2023/06/19 07:23:14;;;;;;;13.20;10.00;;;;;;;29.82;34.85;100304.45;109387;1256;63947;-78
2023/06/19 07:25:40;;;;;;;12.80;9.40;;;;;;;29.80;35.23;100302.71;109334;1256;63956;-78
2023/06/19 07:28:10;;;;;;;14.70;9.50;;;;;;;29.87;35.27;100301.54;109185;1256;58958;-79
2023/06/19 07:30:37;;;;;;;14.40;9.70;;;;;;;30.03;35.67;100301.20;109350;1256;58842;-80
2023/06/19 07:33:04;;;;;;;15.90;10.00;;;;;;;30.19;34.64;100293.70;109372;1255;74576;-79
2023/06/19 07:35:31;;;;;;;15.80;10.20;;;;;;;30.25;34.29;100292.36;109360;1256;62838;-79
2023/06/19 07:37:58;;;;;;;16.30;10.40;;;;;;;30.28;34.26;100293.61;109208;1256;63830;-78
2023/06/19 07:40:29;;;;;;;17.20;9.30;;;;;;;30.38;34.25;100295.40;109286;1256;59075;-77
2023/06/19 07:42:56;;;;;;;12.40;9.30;;;;;;;30.52;34.23;100299.45;109308;1256;59474;-78
2023/06/19 07:45:23;;;;;;;11.60;8.80;;;;;;;30.66;33.19;100302.86;109329;1256;65828;-78
2023/06/19 07:47:55;;;;;;;10.30;8.80;;;;;;;30.71;32.16;100302.61;109377;1255;62684;-78
2023/06/19 07:50:22;;;;;;;14.60;9.50;;;;;;;30.72;31.68;100301.73;109125;1255;63231;-77
2023/06/19 07:52:53;;;;;;;11.70;8.90;;;;;;;30.76;31.73;100304.80;109327;1256;58895;-78
2023/06/19 07:55:20;;;;;;;13.70;9.90;;;;;;;30.84;31.82;100306.58;109344;1255;59050;-79
2023/06/19 07:57:47;;;;;;;14.00;9.20;;;;;;;30.92;31.57;100304.59;109204;1255;66125;-77
2023/06/19 08:00:14;;;;;;;18.50;10.10;;;;;;;31.00;31.98;100309.58;109369;1256;64009;-79
2023/06/19 08:02:43;;;;;;;16.40;10.00;;;;;;;31.11;32.05;100310.39;109309;1255;64061;-78
2023/06/19 08:05:11;;;;;;;19.70;10.60;;;;;;;31.24;32.07;100309.05;109180;1255;58956;-77
2023/06/19 08:07:38;;;;;;;19.20;10.10;;;;;;;31.40;31.39;100306.13;109231;1256;58905;-77
2023/06/19 08:10:06;;;;;;;17.80;9.90;;;;;;;31.52;30.46;100310.53;109183;1255;65892;-79
2023/06/19 08:12:41;;;;;;;22.10;10.90;;;;;;;31.55;30.05;100312.55;109243;1256;62856;-78
2023/06/19 08:15:10;;;;;;;20.70;11.20;;;;;;;31.52;30.32;100309.59;109170;1256;63892;-78
2023/06/19 08:17:37;;;;;;;24.50;10.70;;;;;;;31.48;30.11;100309.63;109334;1256;58983;-78
2023/06/19 08:20:06;;;;;;;21.60;11.50;;;;;;;31.51;30.43;100314.02;109337;1256;59211;-78
2023/06/19 08:22:33;;;;;;;18.00;10.30;;;;;;;31.55;29.86;100314.77;109342;1256;66079;-79
2023/06/19 08:25:00;;;;;;;16.00;10.10;;;;;;;31.57;29.36;100315.86;109323;1256;62853;-78
2023/06/19 08:27:27;;;;;;;16.40;10.70;;;;;;;31.55;29.08;100316.74;109365;1256;62449;-78
2023/06/19 08:29:54;;;;;;;19.90;11.00;;;;;;;31.54;29.20;100314.62;109336;1255;59054;-78
2023/06/19 08:32:21;;;;;;;19.10;10.50;;;;;;;31.56;29.86;100317.84;109385;1255;58956;-79
2023/06/19 08:34:47;;;;;;;17.80;10.70;;;;;;;31.61;30.45;100319.22;109351;1256;65954;-78
2023/06/19 08:37:14;;;;;;;13.90;10.00;;;;;;;31.65;30.40;100317.22;109357;1256;64094;-78
2023/06/19 08:39:42;;;;;;;14.30;10.60;;;;;;;31.59;29.51;100318.68;109342;1255;62767;-78
2023/06/19 08:42:09;;;;;;;11.40;9.80;;;;;;;31.53;29.53;100316.52;109342;1255;58995;-78
2023/06/19 08:44:37;;;;;;;11.60;9.90;;;;;;;31.54;29.50;100315.34;109194;1256;60265;-78
2023/06/19 08:47:06;;;;;;;12.40;9.30;;;;;;;31.58;29.57;100316.56;109362;1256;65987;-78
2023/06/19 08:49:33;;;;;;;11.20;9.00;;;;;;;31.67;29.18;100319.09;109362;1255;64279;-78
2023/06/19 08:52:01;;;;;;;13.10;9.80;;;;;;;31.77;29.06;100322.65;109346;1255;62747;-78
2023/06/19 08:54:28;;;;;;;10.60;8.80;;;;;;;31.87;29.18;100320.83;109324;1255;59010;-78
2023/06/19 08:56:55;;;;;;;10.60;9.00;;;;;;;31.99;28.63;100318.92;109369;1256;58933;-80
2023/06/19 08:59:22;;;;;;;12.20;9.60;;;;;;;32.08;28.45;100321.84;109346;1255;66050;-79
2023/06/19 09:01:53;;;;;;;11.00;9.00;;;;;;;32.11;28.28;100322.36;109231;1256;63852;-78
2023/06/19 09:04:27;;;;;;;10.20;9.10;;;;;;;32.07;28.61;100322.16;109132;1256;62804;-79
2023/06/19 09:06:58;;;;;;;10.40;9.30;;;;;;;32.06;28.94;100320.67;109169;1255;59096;-79
2023/06/19 09:09:26;;;;;;;10.90;9.80;;;;;;;32.11;28.35;100319.20;109217;1255;58996;-79
2023/06/19 09:12:10;;;;;;;10.30;7.70;;;;;;;32.34;27.93;100314.88;109171;1255;66117;-79
2023/06/19 09:14:44;;;;;;;10.70;9.20;;;;;;;32.53;27.17;100317.21;109165;1256;62851;-78
2023/06/19 09:17:19;;;;;;;11.70;8.80;;;;;;;32.58;27.57;100317.69;109174;1255;64080;-77
2023/06/19 09:19:49;;;;;;;10.60;9.20;;;;;;;32.67;27.21;100315.54;109166;1255;58979;-79
2023/06/19 09:22:21;;;;;;;11.10;9.10;;;;;;;32.69;27.02;100316.68;109195;1256;59061;-78
2023/06/19 09:24:48;;;;;;;13.60;9.80;;;;;;;32.69;27.35;100317.08;109207;1256;64939;-78
2023/06/19 09:27:19;;;;;;;13.30;10.00;;;;;;;32.66;26.88;100316.41;109276;1255;62903;-79
2023/06/19 09:29:48;;;;;;;12.20;9.20;;;;;;;32.66;26.88;100317.99;109207;1255;64083;-79
2023/06/19 09:32:22;;;;;;;13.00;9.40;;;;;;;32.71;27.81;100317.77;109173;1255;58973;-78
2023/06/19 09:34:51;;;;;;;12.60;9.50;;;;;;;32.85;28.11;100316.48;109133;1256;59046;-78
2023/06/19 09:37:23;;;;;;;11.70;9.00;;;;;;;33.01;27.64;100315.74;109199;1255;66046;-79
2023/06/19 09:40:10;;;;;;;11.00;9.40;;;;;;;33.12;26.63;100315.20;109213;1255;63896;-78
2023/06/19 09:42:38;;;;;;;12.30;9.30;;;;;;;33.18;26.39;100317.73;109158;1255;63888;-79
2023/06/19 09:45:10;;;;;;;11.00;9.10;;;;;;;33.30;26.84;100314.30;109109;1256;59038;-79
2023/06/19 09:47:46;;;;;;;12.50;8.90;;;;;;;33.45;26.61;100312.11;109202;1255;59002;-78
2023/06/19 09:50:17;;;;;;;13.60;9.60;;;;;;;33.55;26.07;100306.98;109181;1256;66072;-78
2023/06/19 09:52:47;;;;;;;12.50;9.50;;;;;;;33.53;25.96;100304.56;109115;1256;62763;-78
2023/06/19 09:55:14;;;;;;;13.30;9.20;;;;;;;33.58;26.44;100305.19;109091;1256;63873;-79
2023/06/19 09:57:41;;;;;;;15.30;9.40;;;;;;;33.66;26.05;100303.96;109117;1256;59038;-79
2023/06/19 10:00:19;;;;;;;14.60;9.70;;;;;;;33.72;26.36;100303.39;109106;1256;59079;-77
2023/06/19 10:02:48;;;;;;;14.50;9.70;;;;;;;33.76;25.87;100303.16;109161;1256;64743;-78
2023/06/19 10:05:15;;;;;;;14.20;9.40;;;;;;;33.74;26.01;100303.59;109213;1255;62998;-77
2023/06/19 10:07:44;;;;;;;13.30;9.80;;;;;;;33.78;25.73;100302.48;109183;1256;62557;-79
2023/06/19 10:10:23;;;;;;;13.80;9.90;;;;;;;33.84;26.42;100297.95;109182;1256;59019;-78
2023/06/19 10:12:51;;;;;;;15.10;10.10;;;;;;;33.91;26.52;100298.08;109144;1256;58989;-78
2023/06/19 10:15:20;;;;;;;16.00;9.90;;;;;;;33.98;26.54;100297.30;109156;1255;66083;-77
2023/06/19 10:17:59;;;;;;;17.20;9.90;;;;;;;34.01;25.66;100291.02;109202;1255;64242;-78
2023/06/19 10:20:31;;;;;;;17.90;9.50;;;;;;;34.02;26.12;100286.09;109212;1255;62786;-78
2023/06/19 10:22:59;;;;;;;11.70;8.00;;;;;;;34.10;25.85;100285.55;109116;1256;59010;-78
2023/06/19 10:25:33;;;;;;;14.40;9.80;;;;;;;34.11;24.80;100281.18;109203;1255;58835;-78
2023/06/19 10:28:00;;;;;;;14.30;9.10;;;;;;;34.03;25.07;100279.98;109218;1256;64835;-79
2023/06/19 10:30:29;;;;;;;11.70;8.50;;;;;;;34.00;25.20;100280.02;109116;1256;62633;-77
2023/06/19 10:32:57;;;;;;;17.30;8.90;;;;;;;33.99;24.75;100278.30;109157;1255;64052;-77
2023/06/19 10:35:24;;;;;;;16.80;9.50;;;;;;;33.92;24.89;100273.27;109095;1256;58828;-77
2023/06/19 10:37:51;;;;;;;14.10;9.00;;;;;;;33.85;25.44;100274.89;109217;1255;59038;-78
2023/06/19 10:40:18;;;;;;;16.90;9.90;;;;;;;33.90;25.60;100272.84;109184;1256;66038;-78
2023/06/19 10:42:46;;;;;;;17.90;9.60;;;;;;;33.99;25.62;100265.32;109188;1256;62893;-78
2023/06/19 10:45:16;;;;;;;18.60;10.20;;;;;;;34.02;25.04;100266.21;109172;1256;63876;-79
2023/06/19 10:47:44;;;;;;;12.00;8.80;;;;;;;33.95;24.94;100262.30;109211;1256;58976;-76
2023/06/19 10:50:12;;;;;;;14.70;9.50;;;;;;;33.96;25.16;100263.93;109174;1256;58887;-77
2023/06/19 10:52:41;;;;;;;17.40;9.30;;;;;;;34.02;24.71;100261.48;109199;1256;66164;-79
2023/06/19 10:55:08;;;;;;;15.50;9.70;;;;;;;34.07;25.47;100256.94;109207;1256;64127;-78
2023/06/19 10:57:39;;;;;;;13.30;9.00;;;;;;;34.19;25.77;100253.23;109217;1256;63852;-78
2023/06/19 11:00:13;;;;;;;20.00;9.70;;;;;;;34.35;25.11;100250.94;109177;1255;59045;-77
2023/06/19 11:02:43;;;;;;;12.90;8.90;;;;;;;34.45;25.17;100247.88;109180;1256;58913;-78
2023/06/19 11:05:11;;;;;;;10.60;8.10;;;;;;;34.54;24.91;100242.73;109209;1256;66008;-78
2023/06/19 11:07:38;;;;;;;13.40;9.20;;;;;;;34.58;24.17;100239.71;109230;1256;62815;-78
2023/06/19 11:10:06;;;;;;;15.70;8.70;;;;;;;34.52;24.03;100232.83;109165;1256;62679;-79